createdAt,value
2022-11-01T00:00:25.110Z,51.53
2022-11-01T00:03:17.259Z,51.61
2022-11-01T00:05:50.074Z,51.61
2022-11-01T00:08:22.152Z,51.55
2022-11-01T00:10:54.415Z,51.60
2022-11-01T00:13:26.531Z,51.58
2022-11-01T00:15:58.672Z,51.42
2022-11-01T00:18:30.771Z,51.52
2022-11-01T00:21:02.921Z,51.43
2022-11-01T00:23:35.071Z,51.52
2022-11-01T00:26:07.450Z,51.63
2022-11-01T00:28:39.681Z,51.64
2022-11-01T00:31:12.842Z,51.52
2022-11-01T00:33:45.255Z,51.64
2022-11-01T00:36:17.681Z,51.59
2022-11-01T00:38:52.374Z,51.61
2022-11-01T00:41:24.872Z,51.41
2022-11-01T00:43:57.004Z,51.39
2022-11-01T00:46:29.330Z,51.29
2022-11-01T00:49:01.673Z,51.38
2022-11-01T00:51:33.773Z,51.49
2022-11-01T00:54:06.103Z,51.26
2022-11-01T00:56:38.418Z,51.36
2022-11-01T00:59:10.478Z,51.23
2022-11-01T01:01:42.821Z,51.25
2022-11-01T01:04:14.973Z,51.25
2022-11-01T01:06:47.151Z,51.18
2022-11-01T01:09:19.402Z,51.11
2022-11-01T01:11:51.700Z,50.99
2022-11-01T01:14:27.456Z,51.01
2022-11-01T01:17:02.297Z,50.96
2022-11-01T01:19:34.507Z,50.97
2022-11-01T01:22:06.652Z,51.02
2022-11-01T01:24:38.959Z,50.95
2022-11-01T01:27:11.038Z,51.14
2022-11-01T01:29:44.522Z,51.17
2022-11-01T01:32:17.299Z,51.13
2022-11-01T01:34:49.519Z,51.01
2022-11-01T01:37:22.139Z,51.10
2022-11-01T01:39:52.687Z,51.19
2022-11-01T01:42:30.291Z,51.11
2022-11-01T01:45:31.635Z,51.14
2022-11-01T01:48:12.658Z,51.06
2022-11-01T01:50:48.847Z,51.17
2022-11-01T01:53:24.699Z,51.07
2022-11-01T01:56:00.603Z,51.20
2022-11-01T01:58:34.884Z,51.11
2022-11-01T02:01:07.403Z,51.09
2022-11-01T02:03:38.030Z,51.17
2022-11-01T02:06:13.435Z,51.12
2022-11-01T02:08:48.410Z,51.22
2022-11-01T02:11:21.818Z,51.20
2022-11-01T02:13:54.502Z,51.29
2022-11-01T02:16:34.754Z,51.28
2022-11-01T02:19:37.488Z,51.18
2022-11-01T02:22:14.307Z,51.12
2022-11-01T02:27:55.495Z,51.02
2022-11-01T02:30:27.754Z,51.12
2022-11-01T02:33:07.407Z,51.16
2022-11-01T02:35:48.170Z,51.31
2022-11-01T02:38:25.055Z,51.13
2022-11-01T02:41:03.676Z,51.00
2022-11-01T02:43:41.369Z,51.01
2022-11-01T02:46:32.048Z,51.05
2022-11-01T02:49:05.590Z,50.99
2022-11-01T02:51:39.233Z,51.09
2022-11-01T02:54:18.678Z,51.06
2022-11-01T02:56:51.148Z,51.02
2022-11-01T02:59:26.910Z,51.02
2022-11-01T03:02:10.489Z,51.03
2022-11-01T03:04:43.068Z,50.99
2022-11-01T03:07:16.855Z,50.94
2022-11-01T03:09:48.997Z,51.08
2022-11-01T03:12:25.760Z,51.06
2022-11-01T03:15:02.415Z,51.15
2022-11-01T03:17:39.283Z,51.16
2022-11-01T03:20:16.666Z,51.22
2022-11-01T03:22:52.577Z,51.19
2022-11-01T03:25:41.841Z,51.28
2022-11-01T03:28:19.092Z,51.19
2022-11-01T03:30:55.028Z,51.28
2022-11-01T03:33:28.629Z,51.41
2022-11-01T03:36:03.202Z,51.35
2022-11-01T03:38:38.730Z,51.35
2022-11-01T03:41:14.998Z,51.46
2022-11-01T03:43:47.614Z,51.38
2022-11-01T03:46:19.885Z,51.41
2022-11-01T03:48:52.151Z,51.39
2022-11-01T03:51:24.453Z,51.28
2022-11-01T03:53:56.604Z,51.38
2022-11-01T03:56:28.859Z,51.29
2022-11-01T03:59:01.121Z,51.25
2022-11-01T04:01:33.675Z,51.40
2022-11-01T04:04:06.193Z,51.50
2022-11-01T04:06:38.387Z,51.40
2022-11-01T04:09:11.088Z,51.35
2022-11-01T04:11:41.584Z,51.41
2022-11-01T04:14:31.499Z,51.46
2022-11-01T04:17:21.565Z,51.52
2022-11-01T04:20:11.612Z,51.63
2022-11-01T04:22:43.814Z,51.71
2022-11-01T04:25:15.935Z,51.68
2022-11-01T04:27:48.148Z,51.72
2022-11-01T04:30:20.416Z,51.67
2022-11-01T04:32:52.871Z,51.64
2022-11-01T04:35:25.384Z,51.65
2022-11-01T04:38:01.296Z,51.61
2022-11-01T04:40:34.052Z,51.63
2022-11-01T04:43:06.251Z,51.67
2022-11-01T04:45:40.952Z,51.70
2022-11-01T04:48:16.925Z,51.72
2022-11-01T04:50:49.158Z,51.89
2022-11-01T04:53:21.279Z,51.72
2022-11-01T04:55:53.398Z,51.84
2022-11-01T04:58:25.613Z,51.82
2022-11-01T05:00:57.807Z,51.97
2022-11-01T05:03:29.992Z,51.93
2022-11-01T05:06:03.156Z,51.92
2022-11-01T05:08:35.372Z,51.99
2022-11-01T05:11:07.658Z,52.05
2022-11-01T05:13:39.765Z,52.04
2022-11-01T05:16:19.368Z,52.01
2022-11-01T05:18:52.505Z,52.12
2022-11-01T05:21:24.667Z,52.06
2022-11-01T05:23:56.897Z,52.14
2022-11-01T05:26:29.003Z,52.16
2022-11-01T05:29:08.754Z,52.23
2022-11-01T05:31:45.811Z,52.15
2022-11-01T05:34:17.992Z,52.29
2022-11-01T05:36:50.317Z,52.34
2022-11-01T05:39:22.466Z,52.39
2022-11-01T05:41:56.958Z,52.36
2022-11-01T05:44:32.232Z,52.25
2022-11-01T05:47:06.896Z,52.29
2022-11-01T05:49:44.991Z,52.35
2022-11-01T05:52:21.022Z,52.39
2022-11-01T05:54:51.726Z,52.42
2022-11-01T05:57:23.888Z,52.45
2022-11-01T05:59:56.125Z,52.44
2022-11-01T06:02:28.554Z,52.51
2022-11-01T06:05:02.640Z,52.49
2022-11-01T06:07:38.018Z,52.61
2022-11-01T06:10:11.679Z,52.58
2022-11-01T06:12:43.888Z,52.65
2022-11-01T06:15:19.356Z,52.66
2022-11-01T06:17:53.695Z,52.73
2022-11-01T06:20:29.679Z,52.55
2022-11-01T06:23:09.267Z,52.64
2022-11-01T06:25:45.972Z,52.72
2022-11-01T06:28:20.506Z,52.67
2022-11-01T06:30:53.134Z,52.56
2022-11-01T06:33:27.412Z,52.64
2022-11-01T06:36:04.969Z,52.59
2022-11-01T06:38:42.049Z,52.68
2022-11-01T06:41:15.471Z,52.70
2022-11-01T06:43:50.940Z,52.72
2022-11-01T06:46:24.083Z,52.83
2022-11-01T06:48:58.109Z,52.72
2022-11-01T06:51:30.618Z,52.72
2022-11-01T06:54:01.247Z,52.62
2022-11-01T06:56:36.148Z,52.64
2022-11-01T06:59:09.902Z,52.66
2022-11-01T07:01:42.192Z,52.53
2022-11-01T07:04:17.156Z,52.52
2022-11-01T07:06:50.670Z,52.48
2022-11-01T07:09:22.580Z,52.51
2022-11-01T07:11:58.176Z,52.65
2022-11-01T07:14:34.563Z,52.52
2022-11-01T07:17:09.932Z,52.53
2022-11-01T07:19:44.098Z,52.57
2022-11-01T07:22:16.524Z,52.64
2022-11-01T07:25:07.235Z,52.58
2022-11-01T07:27:39.881Z,52.63
2022-11-01T07:30:16.804Z,52.51
2022-11-01T07:32:49.071Z,52.50
2022-11-01T07:35:21.408Z,52.42
2022-11-01T07:37:53.538Z,52.32
2022-11-01T07:40:28.054Z,52.33
2022-11-01T07:43:01.589Z,52.28
2022-11-01T07:45:35.160Z,52.36
2022-11-01T07:48:11.961Z,52.52
2022-11-01T07:50:45.126Z,52.34
2022-11-01T07:53:20.653Z,52.39
2022-11-01T07:55:53.222Z,52.09
2022-11-01T07:58:27.929Z,52.08
2022-11-01T08:01:00.651Z,51.97
2022-11-01T08:03:33.303Z,51.94
2022-11-01T08:06:05.619Z,51.79
2022-11-01T08:08:38.004Z,51.74
2022-11-01T08:11:10.268Z,51.63
2022-11-01T08:13:42.481Z,51.62
2022-11-01T08:16:18.597Z,51.60
2022-11-01T08:18:51.692Z,51.42
2022-11-01T08:21:24.375Z,51.38
2022-11-01T08:23:56.571Z,51.24
2022-11-01T08:26:29.006Z,51.20
2022-11-01T08:29:01.156Z,51.04
2022-11-01T08:31:33.522Z,51.00
2022-11-01T08:34:05.754Z,50.94
2022-11-01T08:36:37.991Z,50.85
2022-11-01T08:41:51.261Z,50.61
2022-11-01T08:44:23.381Z,50.49
2022-11-01T08:46:58.974Z,50.39
2022-11-01T08:49:31.302Z,50.25
2022-11-01T08:52:03.997Z,50.20
2022-11-01T08:54:37.544Z,50.12
2022-11-01T08:57:09.948Z,50.05
2022-11-01T08:59:42.100Z,49.89
2022-11-01T09:02:14.740Z,49.78
2022-11-01T09:04:45.261Z,49.64
2022-11-01T09:07:17.543Z,49.49
2022-11-01T09:09:49.959Z,49.47
2022-11-01T09:12:24.735Z,49.36
2022-11-01T09:14:59.764Z,49.19
2022-11-01T09:17:32.009Z,49.09
2022-11-01T09:20:05.705Z,49.11
2022-11-01T09:22:37.566Z,48.82
2022-11-01T09:25:12.770Z,48.74
2022-11-01T09:27:44.943Z,48.58
2022-11-01T09:30:17.345Z,48.44
2022-11-01T09:32:49.543Z,48.56
2022-11-01T09:35:22.081Z,48.27
2022-11-01T09:38:00.269Z,48.03
2022-11-01T09:40:39.420Z,47.93
2022-11-01T09:43:14.344Z,47.77
2022-11-01T09:45:46.613Z,47.47
2022-11-01T09:48:19.087Z,47.35
2022-11-01T10:02:09.872Z,46.22
2022-11-01T10:05:02.132Z,45.84
2022-11-01T10:07:42.858Z,45.57
2022-11-01T10:10:28.295Z,45.42
2022-11-01T10:13:14.336Z,45.62
2022-11-01T10:15:53.879Z,45.12
2022-11-01T10:18:36.948Z,44.55
2022-11-01T10:21:14.339Z,44.23
2022-11-01T10:23:50.148Z,43.90
2022-11-01T10:26:26.817Z,43.82
2022-11-01T10:29:03.619Z,43.76
2022-11-01T10:31:41.252Z,43.49
2022-11-01T10:34:20.317Z,42.99
2022-11-01T10:37:31.211Z,42.57
2022-11-01T10:40:09.137Z,42.18
2022-11-01T10:42:42.220Z,42.07
2022-11-01T10:45:16.322Z,41.61
2022-11-01T10:47:49.504Z,41.75
2022-11-01T10:50:24.128Z,41.62
2022-11-01T10:52:58.447Z,41.38
2022-11-01T10:55:35.502Z,41.01
2022-11-01T10:58:11.699Z,40.93
2022-11-01T11:00:45.004Z,40.86
2022-11-01T11:03:22.197Z,40.63
2022-11-01T11:05:55.264Z,40.05
2022-11-01T11:08:27.520Z,39.97
2022-11-01T11:11:04.028Z,39.61
2022-11-01T11:13:38.085Z,39.50
2022-11-01T11:16:19.839Z,39.40
2022-11-01T11:19:06.407Z,39.19
2022-11-01T11:21:38.792Z,38.90
2022-11-01T11:24:19.845Z,38.92
2022-11-01T11:26:54.619Z,38.54
2022-11-01T11:29:48.742Z,38.53
2022-11-01T11:32:23.822Z,38.16
2022-11-01T11:34:58.946Z,37.93
2022-11-01T11:37:33.127Z,37.89
2022-11-01T11:40:24.580Z,37.80
2022-11-01T11:42:58.257Z,37.49
2022-11-01T11:45:32.471Z,37.28
2022-11-01T11:48:20.501Z,37.28
2022-11-01T11:51:03.269Z,36.94
2022-11-01T11:53:35.517Z,36.62
2022-11-01T11:56:09.564Z,36.08
2022-11-01T11:58:44.161Z,36.05
2022-11-01T12:01:21.354Z,36.21
2022-11-01T12:03:56.976Z,36.12
2022-11-01T12:06:30.319Z,35.64
2022-11-01T12:09:04.027Z,35.10
2022-11-01T12:11:42.847Z,35.19
2022-11-01T12:14:26.335Z,35.47
2022-11-01T12:16:58.497Z,34.88
2022-11-01T12:19:31.985Z,34.80
2022-11-01T12:22:05.487Z,34.22
2022-11-01T12:24:44.819Z,34.46
2022-11-01T12:27:21.845Z,34.20
2022-11-01T12:29:56.644Z,34.17
2022-11-01T12:32:30.494Z,34.20
2022-11-01T12:35:05.969Z,33.94
2022-11-01T12:37:48.611Z,33.90
2022-11-01T12:40:23.603Z,33.62
2022-11-01T12:43:01.357Z,33.59
2022-11-01T12:45:35.876Z,33.56
2022-11-01T12:48:24.577Z,33.15
2022-11-01T12:51:21.536Z,33.36
2022-11-01T12:53:59.663Z,33.00
2022-11-01T12:56:31.773Z,32.87
2022-11-01T12:59:04.691Z,32.65
2022-11-01T13:01:42.113Z,32.69
2022-11-01T13:04:21.589Z,32.65
2022-11-01T13:07:11.064Z,32.18
2022-11-01T13:09:50.800Z,32.42
2022-11-01T13:12:29.128Z,32.02
2022-11-01T13:15:08.079Z,32.06
2022-11-01T13:17:46.874Z,31.91
2022-11-01T13:20:29.105Z,32.24
2022-11-01T13:23:09.803Z,31.97
2022-11-01T13:25:46.271Z,32.07
2022-11-01T13:28:28.864Z,32.12
2022-11-01T13:31:05.217Z,31.90
2022-11-01T13:33:43.288Z,31.73
2022-11-01T13:36:21.840Z,31.66
2022-11-01T13:39:03.648Z,31.68
2022-11-01T13:41:40.327Z,31.96
2022-11-01T13:44:16.915Z,31.81
2022-11-01T13:47:06.048Z,31.70
2022-11-01T13:50:09.488Z,31.82
2022-11-01T13:52:46.396Z,31.80
2022-11-01T13:55:23.479Z,31.70
2022-11-01T13:57:56.236Z,31.79
2022-11-01T14:00:44.322Z,31.90
2022-11-01T14:08:16.332Z,31.98
2022-11-01T14:10:53.027Z,31.99
2022-11-01T14:13:37.821Z,32.01
2022-11-01T14:16:23.987Z,32.13
2022-11-01T14:19:30.620Z,31.98
2022-11-01T14:22:02.913Z,32.16
2022-11-01T14:24:35.560Z,32.12
2022-11-01T14:27:25.069Z,32.31
2022-11-01T14:29:58.307Z,32.44
2022-11-01T14:32:32.124Z,32.48
2022-11-01T14:35:10.270Z,32.39
2022-11-01T14:37:44.292Z,32.48
2022-11-01T14:40:34.645Z,32.31
2022-11-01T14:43:15.524Z,32.79
2022-11-01T14:45:49.932Z,32.63
2022-11-01T14:48:25.302Z,32.73
2022-11-01T14:51:03.291Z,33.03
2022-11-01T14:53:37.534Z,33.21
2022-11-01T14:56:16.805Z,33.21
2022-11-01T14:58:49.642Z,33.23
2022-11-01T15:08:12.938Z,33.72
2022-11-01T15:10:51.872Z,33.69
2022-11-01T15:13:27.908Z,33.91
2022-11-01T15:16:08.956Z,33.98
2022-11-01T15:19:04.677Z,34.13
2022-11-01T15:22:03.706Z,34.27
2022-11-01T15:24:39.537Z,34.40
2022-11-01T15:27:26.112Z,34.30
2022-11-01T15:29:59.734Z,34.59
2022-11-01T15:32:36.886Z,34.71
2022-11-01T15:35:24.752Z,34.75
2022-11-01T15:38:03.002Z,34.81
2022-11-01T15:40:58.528Z,34.93
2022-11-01T15:43:39.649Z,35.08
2022-11-01T15:46:13.331Z,35.22
2022-11-01T15:48:53.039Z,35.35
2022-11-01T15:51:38.894Z,35.39
2022-11-01T15:54:40.057Z,35.61
2022-11-01T15:57:20.044Z,35.60
2022-11-01T15:59:57.495Z,35.71
2022-11-01T16:02:35.704Z,35.75
2022-11-01T16:05:09.720Z,35.81
2022-11-01T16:07:42.931Z,36.03
2022-11-01T16:10:20.881Z,36.14
2022-11-01T16:12:54.221Z,36.12
2022-11-01T16:15:29.244Z,36.21
2022-11-01T16:18:02.886Z,36.33
2022-11-01T16:20:37.764Z,36.43
2022-11-01T16:23:12.694Z,36.55
2022-11-01T16:25:44.845Z,36.65
2022-11-01T16:28:39.197Z,36.72
2022-11-01T16:31:23.910Z,36.93
2022-11-01T16:33:57.949Z,36.96
2022-11-01T16:36:42.989Z,37.09
2022-11-01T16:39:31.331Z,37.29
2022-11-01T16:42:03.649Z,37.33
2022-11-01T16:44:35.910Z,37.51
2022-11-01T16:47:08.087Z,37.62
2022-11-01T16:49:48.176Z,37.79
2022-11-01T16:52:20.848Z,37.81
2022-11-01T16:54:53.620Z,37.93
2022-11-01T16:57:28.332Z,38.04
2022-11-01T17:00:01.866Z,38.27
2022-11-01T17:02:35.097Z,38.41
2022-11-01T17:05:17.350Z,38.39
2022-11-01T17:07:49.506Z,38.58
2022-11-01T17:10:25.712Z,38.71
2022-11-01T17:12:58.586Z,38.76
2022-11-01T17:15:39.461Z,38.94
2022-11-01T17:18:14.313Z,38.95
2022-11-01T17:20:49.652Z,39.15
2022-11-01T17:23:25.040Z,39.13
2022-11-01T17:25:58.178Z,39.44
2022-11-01T17:28:28.893Z,39.50
2022-11-01T17:31:01.982Z,39.70
2022-11-01T17:33:35.026Z,39.56
2022-11-01T17:36:08.457Z,39.81
2022-11-01T17:38:42.506Z,39.91
2022-11-01T17:41:21.176Z,39.95
2022-11-01T17:43:53.482Z,39.96
2022-11-01T17:46:27.752Z,40.15
2022-11-01T17:49:01.346Z,40.41
2022-11-01T17:51:34.297Z,40.45
2022-11-01T17:54:06.727Z,40.61
2022-11-01T17:56:37.206Z,40.74
2022-11-01T17:59:10.076Z,40.92
2022-11-01T18:02:01.604Z,40.95
2022-11-01T18:04:36.645Z,40.91
2022-11-01T18:07:12.617Z,41.07
2022-11-01T18:09:45.003Z,41.38
2022-11-01T18:12:22.876Z,41.56
2022-11-01T18:15:05.907Z,41.81
2022-11-01T18:17:46.811Z,41.83
2022-11-01T18:20:31.881Z,41.99
2022-11-01T18:23:07.275Z,42.06
2022-11-01T18:25:43.646Z,42.12
2022-11-01T18:28:17.949Z,42.15
2022-11-01T18:30:54.967Z,42.32
2022-11-01T18:33:34.439Z,42.34
2022-11-01T18:36:10.112Z,42.50
2022-11-01T18:38:45.529Z,42.69
2022-11-01T18:41:23.076Z,42.65
2022-11-01T18:43:58.284Z,42.85
2022-11-01T18:46:37.805Z,43.02
2022-11-01T18:49:13.594Z,43.12
2022-11-01T18:51:54.171Z,43.26
2022-11-01T18:54:31.093Z,43.34
2022-11-01T18:57:17.274Z,43.39
2022-11-01T18:59:54.906Z,43.52
2022-11-01T19:02:33.222Z,43.63
2022-11-01T19:05:51.841Z,43.88
2022-11-01T19:08:39.229Z,44.01
2022-11-01T19:11:15.569Z,44.11
2022-11-01T19:13:52.653Z,44.17
2022-11-01T19:19:25.116Z,44.28
2022-11-01T19:22:24.936Z,44.25
2022-11-01T19:25:02.008Z,44.47
2022-11-01T19:27:38.702Z,44.48
2022-11-01T19:30:34.097Z,44.61
2022-11-01T19:33:17.385Z,44.75
2022-11-01T19:35:58.256Z,44.84
2022-11-01T19:38:59.085Z,44.90
2022-11-01T19:41:37.793Z,45.05
2022-11-01T19:44:18.498Z,45.20
2022-11-01T19:46:57.237Z,45.29
2022-11-01T19:49:35.642Z,45.14
2022-11-01T19:52:30.075Z,45.38
2022-11-01T19:55:48.522Z,45.44
2022-11-01T19:58:49.038Z,45.64
2022-11-01T20:01:47.077Z,45.65
2022-11-01T20:04:29.587Z,45.80
2022-11-01T20:07:17.105Z,45.83
2022-11-01T20:09:58.620Z,46.02
2022-11-01T20:12:35.016Z,46.15
2022-11-01T20:15:17.380Z,46.25
2022-11-01T20:17:54.632Z,46.26
2022-11-01T20:20:59.306Z,46.50
2022-11-01T20:23:42.283Z,46.65
2022-11-01T20:26:17.789Z,46.71
2022-11-01T20:28:56.436Z,46.77
2022-11-01T20:31:30.838Z,46.78
2022-11-01T20:34:12.435Z,47.00
2022-11-01T20:36:49.602Z,47.10
2022-11-01T20:39:40.112Z,47.05
2022-11-01T20:42:33.707Z,47.19
2022-11-01T20:45:12.864Z,47.23
2022-11-01T20:48:02.532Z,47.35
2022-11-01T20:50:42.614Z,47.44
2022-11-01T20:53:29.846Z,47.56
2022-11-01T20:56:15.389Z,47.57
2022-11-01T20:58:50.120Z,47.66
2022-11-01T21:01:25.903Z,47.69
2022-11-01T21:03:58.774Z,47.76
2022-11-01T21:06:32.840Z,47.83
2022-11-01T21:09:33.079Z,47.88
2022-11-01T21:12:25.756Z,48.02
2022-11-01T21:15:03.821Z,48.03
2022-11-01T21:17:38.172Z,48.04
2022-11-01T21:20:26.571Z,48.09
2022-11-01T21:23:02.679Z,48.23
2022-11-01T21:25:38.289Z,48.31
2022-11-01T21:28:22.623Z,48.41
2022-11-01T21:31:27.035Z,48.49
2022-11-01T21:34:03.461Z,48.61
2022-11-01T21:37:03.997Z,48.61
2022-11-01T21:39:39.658Z,48.78
2022-11-01T21:42:36.652Z,48.85
2022-11-01T21:45:31.483Z,48.98
2022-11-01T21:48:22.028Z,48.99
2022-11-01T21:51:04.438Z,49.02
2022-11-01T21:53:37.953Z,49.05
2022-11-01T21:56:11.095Z,49.07
2022-11-01T21:58:45.568Z,49.15
2022-11-01T22:01:18.281Z,49.22
2022-11-01T22:03:56.229Z,49.25
2022-11-01T22:06:28.864Z,49.18
2022-11-01T22:08:59.470Z,49.31
2022-11-01T22:11:34.787Z,49.48
2022-11-01T22:14:09.476Z,49.56
2022-11-01T22:16:43.502Z,49.59
2022-11-01T22:19:19.631Z,49.64
2022-11-01T22:22:09.871Z,49.74
2022-11-01T22:24:47.842Z,49.81
2022-11-01T22:27:23.676Z,49.91
2022-11-01T22:29:59.721Z,49.95
2022-11-01T22:32:31.989Z,49.81
2022-11-01T22:35:04.370Z,49.74
2022-11-01T22:37:37.790Z,49.59
2022-11-01T22:40:15.682Z,49.73
2022-11-01T22:42:48.426Z,49.81
2022-11-01T22:45:21.103Z,49.72
2022-11-01T22:47:53.291Z,49.86
2022-11-01T22:50:28.970Z,50.06
2022-11-01T22:53:01.523Z,50.06
2022-11-01T22:55:40.585Z,50.08
2022-11-01T22:58:29.185Z,50.04
2022-11-01T23:01:02.783Z,50.24
2022-11-01T23:04:10.641Z,50.24
2022-11-01T23:06:43.392Z,50.37
2022-11-01T23:09:16.768Z,50.42
2022-11-01T23:12:13.687Z,50.57
2022-11-01T23:14:46.989Z,50.60
2022-11-01T23:17:32.074Z,50.61
2022-11-01T23:20:05.105Z,50.66
2022-11-01T23:22:38.505Z,50.71
2022-11-01T23:25:12.626Z,50.59
2022-11-01T23:27:46.369Z,50.67
2022-11-01T23:30:20.553Z,50.61
2022-11-01T23:32:52.961Z,50.60
2022-11-01T23:35:25.340Z,50.51
2022-11-01T23:37:59.896Z,50.59
2022-11-01T23:40:34.731Z,50.70
2022-11-01T23:43:19.545Z,50.57
2022-11-01T23:45:52.504Z,50.60
2022-11-01T23:48:25.559Z,50.66
2022-11-01T23:50:57.789Z,50.79
2022-11-01T23:53:35.482Z,50.71
2022-11-01T23:56:10.345Z,50.82
2022-11-01T23:58:42.817Z,50.71
